sensor_id;sensor_type;location;lat;lon;timestamp;pressure;altitude;pressure_sealevel;temperature;humidity
61537;BME280;48695;53.480;-6.300;2024-01-30T00:00:10;101811.84;;;5.06;69.27
61537;BME280;48695;53.480;-6.300;2024-01-30T00:02:36;101804.06;;;5.05;69.46
61537;BME280;48695;53.480;-6.300;2024-01-30T00:05:01;101791.00;;;4.97;69.42
61537;BME280;48695;53.480;-6.300;2024-01-30T00:07:28;101792.63;;;4.92;69.55
61537;BME280;48695;53.480;-6.300;2024-01-30T00:09:54;101810.03;;;5.01;69.51
61537;BME280;48695;53.480;-6.300;2024-01-30T00:12:20;101819.59;;;5.03;69.45
61537;BME280;48695;53.480;-6.300;2024-01-30T00:14:45;101794.28;;;4.88;69.63
61537;BME280;48695;53.480;-6.300;2024-01-30T00:17:11;101785.56;;;4.82;69.51
61537;BME280;48695;53.480;-6.300;2024-01-30T00:19:36;101793.38;;;4.86;69.42
61537;BME280;48695;53.480;-6.300;2024-01-30T00:22:02;101787.19;;;4.77;69.65
61537;BME280;48695;53.480;-6.300;2024-01-30T00:24:27;101828.03;;;4.94;69.55
61537;BME280;48695;53.480;-6.300;2024-01-30T00:26:52;101791.41;;;4.72;69.42
61537;BME280;48695;53.480;-6.300;2024-01-30T00:29:18;101839.13;;;4.87;69.67
61537;BME280;48695;53.480;-6.300;2024-01-30T00:31:45;101827.00;;;4.85;69.79
61537;BME280;48695;53.480;-6.300;2024-01-30T00:34:10;101820.88;;;4.81;69.62
61537;BME280;48695;53.480;-6.300;2024-01-30T00:36:37;101797.28;;;4.64;69.72
61537;BME280;48695;53.480;-6.300;2024-01-30T00:39:02;101817.22;;;4.70;69.77
61537;BME280;48695;53.480;-6.300;2024-01-30T00:41:31;101822.47;;;4.73;69.54
61537;BME280;48695;53.480;-6.300;2024-01-30T00:43:56;101792.03;;;4.60;69.54
61537;BME280;48695;53.480;-6.300;2024-01-30T00:46:22;101764.91;;;4.39;69.64
61537;BME280;48695;53.480;-6.300;2024-01-30T00:48:47;101813.72;;;4.66;69.48
61537;BME280;48695;53.480;-6.300;2024-01-30T00:51:13;101813.63;;;4.62;69.56
61537;BME280;48695;53.480;-6.300;2024-01-30T00:53:38;101785.59;;;4.39;69.68
61537;BME280;48695;53.480;-6.300;2024-01-30T00:56:04;101838.78;;;4.69;69.95
61537;BME280;48695;53.480;-6.300;2024-01-30T00:58:29;101822.97;;;4.55;69.69
61537;BME280;48695;53.480;-6.300;2024-01-30T01:00:54;101830.91;;;4.63;69.56
61537;BME280;48695;53.480;-6.300;2024-01-30T01:03:20;101831.66;;;4.57;70.02
61537;BME280;48695;53.480;-6.300;2024-01-30T01:05:46;101853.34;;;4.64;69.85
61537;BME280;48695;53.480;-6.300;2024-01-30T01:08:12;101853.34;;;4.64;69.56
61537;BME280;48695;53.480;-6.300;2024-01-30T01:10:37;101804.47;;;4.35;69.82
61537;BME280;48695;53.480;-6.300;2024-01-30T01:13:02;101836.56;;;4.45;69.76
61537;BME280;48695;53.480;-6.300;2024-01-30T01:15:28;101849.66;;;4.53;69.97
61537;BME280;48695;53.480;-6.300;2024-01-30T01:17:53;101846.91;;;4.45;70.28
61537;BME280;48695;53.480;-6.300;2024-01-30T01:20:19;101842.56;;;4.42;70.05
61537;BME280;48695;53.480;-6.300;2024-01-30T01:22:44;101859.06;;;4.49;70.09
61537;BME280;48695;53.480;-6.300;2024-01-30T01:25:10;101854.72;;;4.47;70.25
61537;BME280;48695;53.480;-6.300;2024-01-30T01:27:35;101800.53;;;4.12;70.04
61537;BME280;48695;53.480;-6.300;2024-01-30T01:30:07;101856.25;;;4.38;70.34
61537;BME280;48695;53.480;-6.300;2024-01-30T01:32:34;101862.28;;;4.37;70.23
61537;BME280;48695;53.480;-6.300;2024-01-30T01:34:59;101870.09;;;4.40;70.51
61537;BME280;48695;53.480;-6.300;2024-01-30T01:37:25;101866.53;;;4.35;70.59
61537;BME280;48695;53.480;-6.300;2024-01-30T01:39:52;101860.22;;;4.21;70.22
61537;BME280;48695;53.480;-6.300;2024-01-30T01:42:17;101850.56;;;4.14;70.13
61537;BME280;48695;53.480;-6.300;2024-01-30T01:44:43;101870.50;;;4.20;70.20
61537;BME280;48695;53.480;-6.300;2024-01-30T01:47:08;101888.81;;;4.30;70.56
61537;BME280;48695;53.480;-6.300;2024-01-30T01:49:34;101865.19;;;4.13;70.22
61537;BME280;48695;53.480;-6.300;2024-01-30T01:51:59;101863.44;;;4.11;70.42
61537;BME280;48695;53.480;-6.300;2024-01-30T01:54:26;101895.59;;;4.25;70.44
61537;BME280;48695;53.480;-6.300;2024-01-30T01:56:53;101865.91;;;4.06;70.72
61537;BME280;48695;53.480;-6.300;2024-01-30T01:59:20;101906.78;;;4.23;70.31
61537;BME280;48695;53.480;-6.300;2024-01-30T02:01:47;101907.63;;;4.23;69.79
61537;BME280;48695;53.480;-6.300;2024-01-30T02:04:15;101895.34;;;4.13;70.24
61537;BME280;48695;53.480;-6.300;2024-01-30T02:06:41;101882.94;;;3.98;70.37
61537;BME280;48695;53.480;-6.300;2024-01-30T02:09:06;101897.75;;;4.05;70.62
61537;BME280;48695;53.480;-6.300;2024-01-30T02:11:32;101907.38;;;4.11;70.37
61537;BME280;48695;53.480;-6.300;2024-01-30T02:14:02;101907.38;;;4.11;70.42
61537;BME280;48695;53.480;-6.300;2024-01-30T02:16:28;101901.16;;;4.04;70.70
61537;BME280;48695;53.480;-6.300;2024-01-30T02:18:53;101898.41;;;3.97;70.77
61537;BME280;48695;53.480;-6.300;2024-01-30T02:21:19;101895.63;;;3.89;70.45
61537;BME280;48695;53.480;-6.300;2024-01-30T02:23:46;101894.78;;;3.88;70.44
61537;BME280;48695;53.480;-6.300;2024-01-30T02:26:12;101890.41;;;3.86;70.28
61537;BME280;48695;53.480;-6.300;2024-01-30T02:28:38;101901.69;;;3.89;70.47
61537;BME280;48695;53.480;-6.300;2024-01-30T02:31:04;101924.31;;;4.00;70.68
61537;BME280;48695;53.480;-6.300;2024-01-30T02:33:29;101903.28;;;3.84;70.29
61537;BME280;48695;53.480;-6.300;2024-01-30T02:35:55;101916.19;;;3.84;70.71
61537;BME280;48695;53.480;-6.300;2024-01-30T02:38:20;101932.91;;;3.99;70.73
61537;BME280;48695;53.480;-6.300;2024-01-30T02:40:46;101913.63;;;3.84;70.49
61537;BME280;48695;53.480;-6.300;2024-01-30T02:43:11;101937.94;;;3.93;70.73
61537;BME280;48695;53.480;-6.300;2024-01-30T02:45:37;101939.63;;;3.90;70.30
61537;BME280;48695;53.480;-6.300;2024-01-30T02:48:02;101919.47;;;3.77;70.78
61537;BME280;48695;53.480;-6.300;2024-01-30T02:50:28;101925.53;;;3.79;70.61
61537;BME280;48695;53.480;-6.300;2024-01-30T02:52:53;101939.53;;;3.87;70.66
61537;BME280;48695;53.480;-6.300;2024-01-30T02:55:19;101924.75;;;3.80;70.67
61537;BME280;48695;53.480;-6.300;2024-01-30T02:57:45;101953.41;;;3.91;70.92
61537;BME280;48695;53.480;-6.300;2024-01-30T03:00:10;101942.03;;;3.84;70.58
61537;BME280;48695;53.480;-6.300;2024-01-30T03:02:36;101948.97;;;3.85;70.61
61537;BME280;48695;53.480;-6.300;2024-01-30T03:05:02;101955.94;;;3.89;70.34
61537;BME280;48695;53.480;-6.300;2024-01-30T03:07:29;101954.09;;;3.84;70.28
61537;BME280;48695;53.480;-6.300;2024-01-30T03:09:54;101942.72;;;3.76;70.61
61537;BME280;48695;53.480;-6.300;2024-01-30T03:12:21;101858.78;;;3.25;70.31
61537;BME280;48695;53.480;-6.300;2024-01-30T03:14:46;101948.69;;;3.75;70.63
61537;BME280;48695;53.480;-6.300;2024-01-30T03:17:11;101928.56;;;3.61;70.56
61537;BME280;48695;53.480;-6.300;2024-01-30T03:19:37;101952.03;;;3.71;70.71
61537;BME280;48695;53.480;-6.300;2024-01-30T03:22:02;101942.44;;;3.65;70.70
61537;BME280;48695;53.480;-6.300;2024-01-30T03:24:28;101952.91;;;3.71;70.55
61537;BME280;48695;53.480;-6.300;2024-01-30T03:26:53;101943.06;;;3.56;70.79
61537;BME280;48695;53.480;-6.300;2024-01-30T03:29:19;101970.16;;;3.72;70.57
61537;BME280;48695;53.480;-6.300;2024-01-30T03:31:44;101972.75;;;3.72;70.83
61537;BME280;48695;53.480;-6.300;2024-01-30T03:34:10;101959.59;;;3.63;70.53
61537;BME280;48695;53.480;-6.300;2024-01-30T03:36:35;101981.28;;;3.70;70.64
61537;BME280;48695;53.480;-6.300;2024-01-30T03:39:01;101918.22;;;3.28;70.46
61537;BME280;48695;53.480;-6.300;2024-01-30T03:41:26;101985.34;;;3.60;70.57
61537;BME280;48695;53.480;-6.300;2024-01-30T03:43:52;101966.19;;;3.52;70.80
61537;BME280;48695;53.480;-6.300;2024-01-30T03:46:17;101959.03;;;3.42;70.71
61537;BME280;48695;53.480;-6.300;2024-01-30T03:48:43;101959.94;;;3.44;70.70
61537;BME280;48695;53.480;-6.300;2024-01-30T03:51:09;101989.63;;;3.59;70.67
61537;BME280;48695;53.480;-6.300;2024-01-30T03:53:39;101971.19;;;3.46;70.44
61537;BME280;48695;53.480;-6.300;2024-01-30T03:56:05;101965.94;;;3.43;71.00
61537;BME280;48695;53.480;-6.300;2024-01-30T03:58:30;101987.56;;;3.46;70.55
61537;BME280;48695;53.480;-6.300;2024-01-30T04:00:56;101921.31;;;3.15;70.77
61537;BME280;48695;53.480;-6.300;2024-01-30T04:03:21;101991.91;;;3.49;70.70
61537;BME280;48695;53.480;-6.300;2024-01-30T04:05:46;101990.06;;;3.45;70.88
61537;BME280;48695;53.480;-6.300;2024-01-30T04:08:12;101997.88;;;3.46;70.90
61537;BME280;48695;53.480;-6.300;2024-01-30T04:10:37;101982.00;;;3.32;70.67
61537;BME280;48695;53.480;-6.300;2024-01-30T04:13:03;102007.16;;;3.39;70.76
61537;BME280;48695;53.480;-6.300;2024-01-30T04:15:28;101994.94;;;3.34;70.63
61537;BME280;48695;53.480;-6.300;2024-01-30T04:17:57;102014.09;;;3.41;70.71
61537;BME280;48695;53.480;-6.300;2024-01-30T04:20:23;101997.41;;;3.29;70.79
61537;BME280;48695;53.480;-6.300;2024-01-30T04:22:48;102016.56;;;3.37;70.87
61537;BME280;48695;53.480;-6.300;2024-01-30T04:25:14;102007.72;;;3.29;71.01
61537;BME280;48695;53.480;-6.300;2024-01-30T04:27:39;102012.81;;;3.26;70.83
61537;BME280;48695;53.480;-6.300;2024-01-30T04:30:05;101996.94;;;3.12;70.69
61537;BME280;48695;53.480;-6.300;2024-01-30T04:32:32;102023.00;;;3.22;70.74
61537;BME280;48695;53.480;-6.300;2024-01-30T04:34:57;102014.97;;;3.11;70.78
61537;BME280;48695;53.480;-6.300;2024-01-30T04:37:23;102020.13;;;3.11;70.63
61537;BME280;48695;53.480;-6.300;2024-01-30T04:39:48;102041.06;;;3.20;71.00
61537;BME280;48695;53.480;-6.300;2024-01-30T04:42:14;102028.72;;;3.10;70.83
61537;BME280;48695;53.480;-6.300;2024-01-30T04:44:39;102053.13;;;3.21;70.49
61537;BME280;48695;53.480;-6.300;2024-01-30T04:47:05;102034.44;;;3.00;70.82
61537;BME280;48695;53.480;-6.300;2024-01-30T04:49:33;102052.66;;;3.06;70.69
61537;BME280;48695;53.480;-6.300;2024-01-30T04:51:58;102060.59;;;3.12;70.47
61537;BME280;48695;53.480;-6.300;2024-01-30T04:54:24;102049.09;;;3.01;70.67
61537;BME280;48695;53.480;-6.300;2024-01-30T04:56:50;102047.22;;;2.97;70.42
61537;BME280;48695;53.480;-6.300;2024-01-30T04:59:15;102058.59;;;3.03;70.80
61537;BME280;48695;53.480;-6.300;2024-01-30T05:01:40;102052.38;;;2.97;70.53
61537;BME280;48695;53.480;-6.300;2024-01-30T05:04:09;102044.50;;;2.92;70.73
61537;BME280;48695;53.480;-6.300;2024-01-30T05:06:35;102061.81;;;2.95;70.59
61537;BME280;48695;53.480;-6.300;2024-01-30T05:09:00;102055.53;;;2.86;70.57
61537;BME280;48695;53.480;-6.300;2024-01-30T05:11:26;102065.94;;;2.90;70.51
61537;BME280;48695;53.480;-6.300;2024-01-30T05:13:51;102086.91;;;3.00;70.76
61537;BME280;48695;53.480;-6.300;2024-01-30T05:16:16;102085.03;;;2.95;70.52
61537;BME280;48695;53.480;-6.300;2024-01-30T05:18:43;102091.06;;;2.95;70.50
61537;BME280;48695;53.480;-6.300;2024-01-30T05:21:08;102083.06;;;2.88;70.34
61537;BME280;48695;53.480;-6.300;2024-01-30T05:23:34;102077.72;;;2.81;70.56
61537;BME280;48695;53.480;-6.300;2024-01-30T05:25:59;102091.59;;;2.85;70.33
61537;BME280;48695;53.480;-6.300;2024-01-30T05:28:26;102100.22;;;2.85;70.75
61537;BME280;48695;53.480;-6.300;2024-01-30T05:30:51;102102.75;;;2.84;70.55
61537;BME280;48695;53.480;-6.300;2024-01-30T05:33:17;102079.00;;;2.67;70.47
61537;BME280;48695;53.480;-6.300;2024-01-30T05:35:42;102113.94;;;2.84;70.34
61537;BME280;48695;53.480;-6.300;2024-01-30T05:38:08;102097.16;;;2.70;70.35
61537;BME280;48695;53.480;-6.300;2024-01-30T05:40:33;102133.78;;;2.87;70.19
61537;BME280;48695;53.480;-6.300;2024-01-30T05:42:59;102101.47;;;2.71;70.45
61537;BME280;48695;53.480;-6.300;2024-01-30T05:45:26;102129.44;;;2.84;70.69
61537;BME280;48695;53.480;-6.300;2024-01-30T05:47:52;102110.25;;;2.76;70.52
61537;BME280;48695;53.480;-6.300;2024-01-30T05:50:17;102090.88;;;2.62;70.23
61537;BME280;48695;53.480;-6.300;2024-01-30T05:52:43;102128.41;;;2.79;70.62
61537;BME280;48695;53.480;-6.300;2024-01-30T05:55:08;102134.47;;;2.81;70.56
61537;BME280;48695;53.480;-6.300;2024-01-30T05:57:34;102134.28;;;2.75;70.76
61537;BME280;48695;53.480;-6.300;2024-01-30T06:00:00;102103.69;;;2.59;70.48
61537;BME280;48695;53.480;-6.300;2024-01-30T06:02:25;102136.81;;;2.74;70.46
61537;BME280;48695;53.480;-6.300;2024-01-30T06:04:51;102090.88;;;2.37;70.52
61537;BME280;48695;53.480;-6.300;2024-01-30T06:07:16;102133.06;;;2.64;70.52
61537;BME280;48695;53.480;-6.300;2024-01-30T06:09:42;102148.69;;;2.69;70.56
61537;BME280;48695;53.480;-6.300;2024-01-30T06:12:08;102133.78;;;2.60;70.34
61537;BME280;48695;53.480;-6.300;2024-01-30T06:14:33;102128.44;;;2.54;70.48
61537;BME280;48695;53.480;-6.300;2024-01-30T06:16:59;102155.50;;;2.67;70.28
61537;BME280;48695;53.480;-6.300;2024-01-30T06:19:25;102153.63;;;2.63;70.78
61537;BME280;48695;53.480;-6.300;2024-01-30T06:21:50;102177.09;;;2.70;70.50
61537;BME280;48695;53.480;-6.300;2024-01-30T06:24:16;102171.84;;;2.67;70.52
61537;BME280;48695;53.480;-6.300;2024-01-30T06:26:42;102162.88;;;2.56;70.58
61537;BME280;48695;53.480;-6.300;2024-01-30T06:29:07;102164.63;;;2.57;70.72
61537;BME280;48695;53.480;-6.300;2024-01-30T06:31:33;102179.41;;;2.63;70.30
61537;BME280;48695;53.480;-6.300;2024-01-30T06:33:58;102192.38;;;2.64;70.70
61537;BME280;48695;53.480;-6.300;2024-01-30T06:36:23;102184.34;;;2.55;70.58
61537;BME280;48695;53.480;-6.300;2024-01-30T06:38:49;102184.25;;;2.53;70.39
61537;BME280;48695;53.480;-6.300;2024-01-30T06:41:14;102203.41;;;2.60;70.81
61537;BME280;48695;53.480;-6.300;2024-01-30T06:43:40;102197.22;;;2.55;70.63
61537;BME280;48695;53.480;-6.300;2024-01-30T06:46:05;102186.47;;;2.43;70.77
61537;BME280;48695;53.480;-6.300;2024-01-30T06:48:31;102194.50;;;2.50;70.54
61537;BME280;48695;53.480;-6.300;2024-01-30T06:50:57;102182.19;;;2.43;70.95
61537;BME280;48695;53.480;-6.300;2024-01-30T06:53:23;102195.25;;;2.48;70.73
61537;BME280;48695;53.480;-6.300;2024-01-30T06:55:48;102202.19;;;2.49;70.81
61537;BME280;48695;53.480;-6.300;2024-01-30T06:58:14;102197.78;;;2.46;71.13
61537;BME280;48695;53.480;-6.300;2024-01-30T07:00:39;102192.28;;;2.37;71.00
61537;BME280;48695;53.480;-6.300;2024-01-30T07:03:04;102221.91;;;2.48;70.99
61537;BME280;48695;53.480;-6.300;2024-01-30T07:05:30;102210.47;;;2.40;70.57
61537;BME280;48695;53.480;-6.300;2024-01-30T07:07:55;102222.28;;;2.33;70.83
61537;BME280;48695;53.480;-6.300;2024-01-30T07:10:21;102243.97;;;2.40;70.48
61537;BME280;48695;53.480;-6.300;2024-01-30T07:12:46;102226.47;;;2.31;70.75
61537;BME280;48695;53.480;-6.300;2024-01-30T07:15:12;102215.03;;;2.23;70.46
61537;BME280;48695;53.480;-6.300;2024-01-30T07:17:39;102246.59;;;2.42;70.36
61537;BME280;48695;53.480;-6.300;2024-01-30T07:20:06;102240.31;;;2.33;70.54
61537;BME280;48695;53.480;-6.300;2024-01-30T07:22:32;102223.47;;;2.19;70.87
61537;BME280;48695;53.480;-6.300;2024-01-30T07:24:58;102240.91;;;2.26;71.05
61537;BME280;48695;53.480;-6.300;2024-01-30T07:27:24;102218.97;;;2.14;70.98
61537;BME280;48695;53.480;-6.300;2024-01-30T07:29:49;102208.34;;;2.04;70.98
61537;BME280;48695;53.480;-6.300;2024-01-30T07:32:14;102230.25;;;2.17;71.21
61537;BME280;48695;53.480;-6.300;2024-01-30T07:34:40;102231.09;;;2.16;71.11
61537;BME280;48695;53.480;-6.300;2024-01-30T07:37:05;102251.00;;;2.20;70.81
61537;BME280;48695;53.480;-6.300;2024-01-30T07:39:33;102248.25;;;2.16;71.01
61537;BME280;48695;53.480;-6.300;2024-01-30T07:41:59;102263.50;;;2.10;71.22
61537;BME280;48695;53.480;-6.300;2024-01-30T07:44:24;102281.03;;;2.20;70.75
61537;BME280;48695;53.480;-6.300;2024-01-30T07:46:50;102288.72;;;2.18;71.02
61537;BME280;48695;53.480;-6.300;2024-01-30T07:49:15;102281.47;;;2.08;71.15
61537;BME280;48695;53.480;-6.300;2024-01-30T07:51:40;102284.97;;;2.10;70.79
61537;BME280;48695;53.480;-6.300;2024-01-30T07:54:06;102276.06;;;2.02;71.21
61537;BME280;48695;53.480;-6.300;2024-01-30T07:56:31;102261.91;;;1.91;71.05
61537;BME280;48695;53.480;-6.300;2024-01-30T07:58:57;102288.97;;;2.02;71.11
61537;BME280;48695;53.480;-6.300;2024-01-30T08:01:22;102298.47;;;2.03;71.27
61537;BME280;48695;53.480;-6.300;2024-01-30T08:03:47;102268.59;;;1.86;71.31
61537;BME280;48695;53.480;-6.300;2024-01-30T08:06:13;102306.41;;;2.09;71.22
61537;BME280;48695;53.480;-6.300;2024-01-30T08:08:39;102273.66;;;1.83;70.94
61537;BME280;48695;53.480;-6.300;2024-01-30T08:11:04;102279.94;;;1.91;71.55
61537;BME280;48695;53.480;-6.300;2024-01-30T08:13:30;102289.78;;;2.01;71.11
61537;BME280;48695;53.480;-6.300;2024-01-30T08:15:55;102294.72;;;1.95;71.23
61537;BME280;48695;53.480;-6.300;2024-01-30T08:18:21;102299.72;;;1.92;71.06
61537;BME280;48695;53.480;-6.300;2024-01-30T08:20:46;102308.78;;;2.03;71.62
61537;BME280;48695;53.480;-6.300;2024-01-30T08:23:11;102295.53;;;1.94;71.15
61537;BME280;48695;53.480;-6.300;2024-01-30T08:25:37;102308.28;;;1.91;71.28
61537;BME280;48695;53.480;-6.300;2024-01-30T08:28:03;102325.63;;;1.95;71.56
61537;BME280;48695;53.480;-6.300;2024-01-30T08:30:29;102330.91;;;1.98;71.58
61537;BME280;48695;53.480;-6.300;2024-01-30T08:32:54;102316.84;;;1.90;71.54
61537;BME280;48695;53.480;-6.300;2024-01-30T08:35:20;102325.25;;;1.86;71.26
61537;BME280;48695;53.480;-6.300;2024-01-30T08:37:45;102315.59;;;1.80;71.42
61537;BME280;48695;53.480;-6.300;2024-01-30T08:40:10;102330.53;;;1.89;71.59
61537;BME280;48695;53.480;-6.300;2024-01-30T08:42:36;102328.91;;;1.91;71.43
61537;BME280;48695;53.480;-6.300;2024-01-30T08:45:01;102346.38;;;1.98;71.34
61537;BME280;48695;53.480;-6.300;2024-01-30T08:47:27;102282.16;;;1.59;71.06
61537;BME280;48695;53.480;-6.300;2024-01-30T08:49:53;102353.50;;;2.05;71.35
61537;BME280;48695;53.480;-6.300;2024-01-30T08:52:18;102355.25;;;2.06;71.36
61537;BME280;48695;53.480;-6.300;2024-01-30T08:54:43;102341.22;;;1.98;71.39
61537;BME280;48695;53.480;-6.300;2024-01-30T08:57:09;102361.09;;;2.02;71.42
61537;BME280;48695;53.480;-6.300;2024-01-30T08:59:34;102364.81;;;2.08;71.40
61537;BME280;48695;53.480;-6.300;2024-01-30T09:02:00;102361.09;;;2.02;71.29
61537;BME280;48695;53.480;-6.300;2024-01-30T09:04:25;102280.16;;;1.52;71.62
61537;BME280;48695;53.480;-6.300;2024-01-30T09:06:51;102367.31;;;2.07;71.40
61537;BME280;48695;53.480;-6.300;2024-01-30T09:09:16;102372.47;;;2.07;71.61
61537;BME280;48695;53.480;-6.300;2024-01-30T09:11:43;102314.59;;;1.76;71.15
61537;BME280;48695;53.480;-6.300;2024-01-30T09:14:08;102390.03;;;2.17;71.54
61537;BME280;48695;53.480;-6.300;2024-01-30T09:16:34;102383.03;;;2.13;71.08
61537;BME280;48695;53.480;-6.300;2024-01-30T09:18:59;102390.03;;;2.17;71.31
61537;BME280;48695;53.480;-6.300;2024-01-30T09:21:24;102375.31;;;2.13;71.45
61537;BME280;48695;53.480;-6.300;2024-01-30T09:23:50;102387.78;;;2.25;71.94
61537;BME280;48695;53.480;-6.300;2024-01-30T09:26:15;102390.75;;;2.36;72.04
61537;BME280;48695;53.480;-6.300;2024-01-30T09:28:41;102384.41;;;2.50;71.74
61537;BME280;48695;53.480;-6.300;2024-01-30T09:31:11;102418.38;;;2.84;71.96
61537;BME280;48695;53.480;-6.300;2024-01-30T09:33:36;102407.88;;;3.04;71.87
61537;BME280;48695;53.480;-6.300;2024-01-30T09:36:02;102398.19;;;3.22;71.79
61537;BME280;48695;53.480;-6.300;2024-01-30T09:38:27;102396.66;;;3.53;71.58
61537;BME280;48695;53.480;-6.300;2024-01-30T09:40:56;102410.53;;;3.82;71.80
61537;BME280;48695;53.480;-6.300;2024-01-30T09:43:23;102415.69;;;4.09;71.42
61537;BME280;48695;53.480;-6.300;2024-01-30T09:45:50;102412.06;;;4.31;71.13
61537;BME280;48695;53.480;-6.300;2024-01-30T09:48:15;102390.06;;;4.45;70.65
61537;BME280;48695;53.480;-6.300;2024-01-30T09:50:41;102386.41;;;4.67;70.33
61537;BME280;48695;53.480;-6.300;2024-01-30T09:53:08;102402.16;;;5.06;69.80
61537;BME280;48695;53.480;-6.300;2024-01-30T09:55:35;102414.13;;;5.33;69.72
61537;BME280;48695;53.480;-6.300;2024-01-30T09:58:01;102404.06;;;5.45;69.25
61537;BME280;48695;53.480;-6.300;2024-01-30T10:00:26;102424.84;;;5.83;69.19
61537;BME280;48695;53.480;-6.300;2024-01-30T10:02:52;102433.31;;;6.09;68.86
61537;BME280;48695;53.480;-6.300;2024-01-30T10:05:19;102432.97;;;6.31;68.40
61537;BME280;48695;53.480;-6.300;2024-01-30T10:07:54;102432.78;;;6.63;68.84
61537;BME280;48695;53.480;-6.300;2024-01-30T10:10:22;102432.53;;;6.93;70.19
61537;BME280;48695;53.480;-6.300;2024-01-30T10:12:48;102335.75;;;6.56;68.43
61537;BME280;48695;53.480;-6.300;2024-01-30T10:15:14;102415.81;;;7.22;68.02
61537;BME280;48695;53.480;-6.300;2024-01-30T10:17:39;102400.47;;;7.38;67.79
61537;BME280;48695;53.480;-6.300;2024-01-30T10:20:05;102427.00;;;7.68;67.34
61537;BME280;48695;53.480;-6.300;2024-01-30T10:22:31;102404.56;;;7.73;67.41
61537;BME280;48695;53.480;-6.300;2024-01-30T10:24:56;102421.50;;;8.04;66.72
61537;BME280;48695;53.480;-6.300;2024-01-30T10:27:28;102411.41;;;8.23;67.16
61537;BME280;48695;53.480;-6.300;2024-01-30T10:29:55;102417.78;;;8.42;66.43
61537;BME280;48695;53.480;-6.300;2024-01-30T10:32:21;102433.69;;;8.63;65.84
61537;BME280;48695;53.480;-6.300;2024-01-30T10:34:47;102436.41;;;8.74;65.55
61537;BME280;48695;53.480;-6.300;2024-01-30T10:37:12;102440.19;;;8.97;65.49
61537;BME280;48695;53.480;-6.300;2024-01-30T10:39:41;102435.16;;;9.16;65.34
61537;BME280;48695;53.480;-6.300;2024-01-30T10:42:12;102411.00;;;9.32;65.49
61537;BME280;48695;53.480;-6.300;2024-01-30T10:45:00;102431.31;;;9.64;65.30
61537;BME280;48695;53.480;-6.300;2024-01-30T10:47:29;102429.66;;;9.78;64.10
61537;BME280;48695;53.480;-6.300;2024-01-30T10:49:55;102441.13;;;9.95;64.22
61537;BME280;48695;53.480;-6.300;2024-01-30T10:52:23;102436.06;;;10.17;64.10
61537;BME280;48695;53.480;-6.300;2024-01-30T10:54:50;102445.81;;;10.34;63.81
61537;BME280;48695;53.480;-6.300;2024-01-30T10:57:15;102438.03;;;10.48;63.26
61537;BME280;48695;53.480;-6.300;2024-01-30T10:59:43;102441.63;;;10.69;62.94
61537;BME280;48695;53.480;-6.300;2024-01-30T11:02:09;102446.06;;;10.85;62.93
61537;BME280;48695;53.480;-6.300;2024-01-30T11:04:40;102426.03;;;10.93;63.03
61537;BME280;48695;53.480;-6.300;2024-01-30T11:07:19;102451.38;;;11.18;63.99
61537;BME280;48695;53.480;-6.300;2024-01-30T11:12:27;102453.19;;;11.36;61.89
61537;BME280;48695;53.480;-6.300;2024-01-30T11:15:14;102467.16;;;11.49;62.72
61537;BME280;48695;53.480;-6.300;2024-01-30T11:20:09;102454.97;;;11.68;62.04
61537;BME280;48695;53.480;-6.300;2024-01-30T11:22:35;102465.47;;;11.83;62.38
61537;BME280;48695;53.480;-6.300;2024-01-30T11:25:01;102455.91;;;11.87;61.14
61537;BME280;48695;53.480;-6.300;2024-01-30T11:27:30;102467.25;;;11.92;60.69
61537;BME280;48695;53.480;-6.300;2024-01-30T11:30:01;102465.47;;;11.99;61.20
61537;BME280;48695;53.480;-6.300;2024-01-30T11:32:27;102467.22;;;11.98;61.10
61537;BME280;48695;53.480;-6.300;2024-01-30T11:34:53;102455.91;;;12.02;60.44
61537;BME280;48695;53.480;-6.300;2024-01-30T11:37:19;102461.13;;;12.13;60.33
61537;BME280;48695;53.480;-6.300;2024-01-30T11:39:47;102428.81;;;11.91;60.42
61537;BME280;48695;53.480;-6.300;2024-01-30T11:42:13;102461.97;;;12.15;59.99
61537;BME280;48695;53.480;-6.300;2024-01-30T11:44:39;102469.84;;;12.23;59.94
61537;BME280;48695;53.480;-6.300;2024-01-30T11:47:05;102468.06;;;12.31;60.39
61537;BME280;48695;53.480;-6.300;2024-01-30T11:49:30;102454.97;;;12.31;59.71
61537;BME280;48695;53.480;-6.300;2024-01-30T11:51:56;102471.50;;;12.51;60.17
61537;BME280;48695;53.480;-6.300;2024-01-30T11:54:22;102469.75;;;12.59;59.64
61537;BME280;48695;53.480;-6.300;2024-01-30T11:56:47;102452.28;;;12.64;59.63
61537;BME280;48695;53.480;-6.300;2024-01-30T11:59:13;102444.38;;;12.73;59.20
61537;BME280;48695;53.480;-6.300;2024-01-30T12:01:39;102439.97;;;12.85;59.11
61537;BME280;48695;53.480;-6.300;2024-01-30T12:04:05;102415.50;;;12.80;58.97
61537;BME280;48695;53.480;-6.300;2024-01-30T12:06:34;102405.88;;;12.85;60.01
61537;BME280;48695;53.480;-6.300;2024-01-30T12:09:01;102438.09;;;13.08;58.77
61537;BME280;48695;53.480;-6.300;2024-01-30T12:11:30;102425.88;;;13.09;58.70
61537;BME280;48695;53.480;-6.300;2024-01-30T12:13:56;102429.25;;;13.28;58.37
61537;BME280;48695;53.480;-6.300;2024-01-30T12:16:22;102427.44;;;13.40;58.80
61537;BME280;48695;53.480;-6.300;2024-01-30T12:18:48;102428.16;;;13.62;58.20
61537;BME280;48695;53.480;-6.300;2024-01-30T12:21:16;102429.72;;;13.83;58.73
61537;BME280;48695;53.480;-6.300;2024-01-30T12:23:41;102419.94;;;14.02;57.75
61537;BME280;48695;53.480;-6.300;2024-01-30T12:26:07;102425.03;;;14.20;57.63
61537;BME280;48695;53.480;-6.300;2024-01-30T12:28:33;102424.81;;;14.39;57.20
61537;BME280;48695;53.480;-6.300;2024-01-30T12:31:03;102435.06;;;14.63;57.64
61537;BME280;48695;53.480;-6.300;2024-01-30T12:33:32;102421.03;;;14.64;55.78
61537;BME280;48695;53.480;-6.300;2024-01-30T12:36:01;102418.13;;;14.87;55.71
61537;BME280;48695;53.480;-6.300;2024-01-30T12:38:27;102422.31;;;15.02;55.82
61537;BME280;48695;53.480;-6.300;2024-01-30T12:40:55;102407.06;;;15.27;55.92
61537;BME280;48695;53.480;-6.300;2024-01-30T12:43:22;102399.09;;;15.31;54.74
61537;BME280;48695;53.480;-6.300;2024-01-30T12:45:49;102418.22;;;15.43;54.99